Time;durP1;ratioP1;P1;durP2;ratioP2;P2;SDS_P1;SDS_P2;PMS_P1;PMS_P2;Temp;Humidity;BMP_temperature;BMP_pressure;BME280_temperature;BME280_humidity;BME280_pressure;Samples;Min_cycle;Max_cycle;Signal;HPM_P1;HPM_P2
2023/04/11 00:01:59;;;;;;;;;;;15.00;79.90;;;;;;5117032;28;20004;-72
2023/04/11 00:04:24;;;;;;;;;;;15.00;80.00;;;;;;5117243;27;19964;-70
2023/04/11 00:06:50;;;;;;;;;;;15.00;80.00;;;;;;5115712;27;19912;-70
2023/04/11 00:09:16;;;;;;;;;;;15.00;80.00;;;;;;5115494;28;19916;-70
2023/04/11 00:11:41;;;;;;;;;;;15.00;80.10;;;;;;5115530;28;19939;-69
2023/04/11 00:14:07;;;;;;;;;;;15.00;80.10;;;;;;5115372;27;19991;-70
2023/04/11 00:16:33;;;;;;;;;;;15.00;80.10;;;;;;5115159;28;19907;-69
2023/04/11 00:19:02;;;;;;;;;;;14.90;80.20;;;;;;5117496;28;19908;-70
2023/04/11 00:21:27;;;;;;;;;;;14.90;80.20;;;;;;5116118;28;19994;-70
2023/04/11 00:23:53;;;;;;;;;;;14.90;80.20;;;;;;5115932;28;20381;-70
2023/04/11 00:26:18;;;;;;;;;;;14.90;80.30;;;;;;5116259;28;19991;-69
2023/04/11 00:28:44;;;;;;;;;;;14.90;80.30;;;;;;5115465;27;20011;-69
2023/04/11 00:31:11;;;;;;;;;;;14.80;80.30;;;;;;5115370;28;19912;-69
2023/04/11 00:33:36;;;;;;;;;;;14.80;80.40;;;;;;5115897;28;19912;-70
2023/04/11 00:36:02;;;;;;;;;;;14.80;80.40;;;;;;5115793;28;19908;-69
2023/04/11 00:38:27;;;;;;;;;;;14.80;80.50;;;;;;5113983;28;19953;-70
2023/04/11 00:40:53;;;;;;;;;;;14.80;80.50;;;;;;5116895;28;19943;-71
2023/04/11 00:43:18;;;;;;;;;;;14.70;80.50;;;;;;5115498;28;19931;-69
2023/04/11 00:45:44;;;;;;;;;;;14.70;80.60;;;;;;5115147;28;19915;-69
2023/04/11 00:48:09;;;;;;;;;;;14.70;80.60;;;;;;5113885;28;20320;-69
2023/04/11 00:50:38;;;;;;;;;;;14.70;80.70;;;;;;5114752;28;19908;-70
2023/04/11 00:53:04;;;;;;;;;;;14.70;81.20;;;;;;5115053;28;20278;-69
2023/04/11 00:55:29;;;;;;;;;;;14.70;80.80;;;;;;5117017;28;19908;-71
2023/04/11 00:57:55;;;;;;;;;;;14.60;80.70;;;;;;5115879;28;19934;-73
2023/04/11 01:00:21;;;;;;;;;;;14.60;80.80;;;;;;5114242;28;19994;-67
2023/04/11 01:02:47;;;;;;;;;;;14.60;80.90;;;;;;5113576;28;19960;-70
2023/04/11 01:05:13;;;;;;;;;;;14.60;80.90;;;;;;5115951;28;19926;-70
2023/04/11 01:07:41;;;;;;;;;;;14.60;81.00;;;;;;5114937;28;19912;-71
2023/04/11 01:10:07;;;;;;;;;;;14.60;81.00;;;;;;5116159;28;20032;-70
2023/04/11 01:12:33;;;;;;;;;;;14.60;81.10;;;;;;5115949;28;19908;-70
2023/04/11 01:14:58;;;;;;;;;;;14.50;81.00;;;;;;5115878;28;19907;-69
2023/04/11 01:17:25;;;;;;;;;;;14.50;81.10;;;;;;5116212;28;19908;-70
2023/04/11 01:19:51;;;;;;;;;;;14.50;81.10;;;;;;5114829;28;19915;-70
2023/04/11 01:22:19;;;;;;;;;;;14.50;81.20;;;;;;5113121;28;20278;-69
2023/04/11 01:24:45;;;;;;;;;;;14.50;81.20;;;;;;5119138;28;19912;-69
2023/04/11 01:27:10;;;;;;;;;;;14.50;81.20;;;;;;5118982;28;20255;-70
2023/04/11 01:29:36;;;;;;;;;;;14.50;81.20;;;;;;5118634;28;20423;-70
2023/04/11 01:32:02;;;;;;;;;;;14.50;81.30;;;;;;5118482;28;20333;-69
2023/04/11 01:34:28;;;;;;;;;;;14.50;81.30;;;;;;5118826;28;20335;-70
2023/04/11 01:36:54;;;;;;;;;;;14.50;81.30;;;;;;5119003;28;19908;-69
2023/04/11 01:39:19;;;;;;;;;;;14.40;81.30;;;;;;5117531;28;20266;-70
2023/04/11 01:41:45;;;;;;;;;;;14.40;81.30;;;;;;5119475;27;19915;-70
2023/04/11 01:44:11;;;;;;;;;;;14.40;81.30;;;;;;5119314;28;20008;-71
2023/04/11 01:46:37;;;;;;;;;;;14.40;81.40;;;;;;5119073;28;19938;-70
2023/04/11 01:49:02;;;;;;;;;;;14.40;81.40;;;;;;5119996;28;20355;-70
2023/04/11 01:51:28;;;;;;;;;;;14.40;81.40;;;;;;5119726;28;19907;-72
2023/04/11 01:53:53;;;;;;;;;;;14.40;81.40;;;;;;5119745;28;19943;-72
2023/04/11 01:56:19;;;;;;;;;;;14.40;81.40;;;;;;5119038;28;19915;-71
2023/04/11 01:58:44;;;;;;;;;;;14.40;81.40;;;;;;5119434;27;19999;-68
2023/04/11 02:01:12;;;;;;;;;;;14.40;81.40;;;;;;5118887;28;19907;-69
2023/04/11 02:03:37;;;;;;;;;;;14.40;81.40;;;;;;5119795;28;19911;-72
2023/04/11 02:06:03;;;;;;;;;;;14.40;81.40;;;;;;5116587;28;19924;-69
2023/04/11 02:08:29;;;;;;;;;;;14.40;81.40;;;;;;5118300;28;19939;-69
2023/04/11 02:10:54;;;;;;;;;;;14.40;81.40;;;;;;5118512;28;19974;-70
2023/04/11 02:13:20;;;;;;;;;;;14.40;81.40;;;;;;5119794;28;19908;-69
2023/04/11 02:15:45;;;;;;;;;;;14.40;81.50;;;;;;5119820;28;19908;-68
2023/04/11 02:18:11;;;;;;;;;;;14.40;81.50;;;;;;5119509;28;20063;-68
2023/04/11 02:20:36;;;;;;;;;;;14.40;81.40;;;;;;5119362;28;20002;-69
2023/04/11 02:23:03;;;;;;;;;;;14.40;81.50;;;;;;5119846;28;20366;-70
2023/04/11 02:25:31;;;;;;;;;;;14.40;81.50;;;;;;5118285;28;19912;-70
2023/04/11 02:27:56;;;;;;;;;;;14.40;81.50;;;;;;5116526;28;19963;-69
2023/04/11 02:30:22;;;;;;;;;;;14.40;81.50;;;;;;5118221;28;19931;-69
2023/04/11 02:32:50;;;;;;;;;;;14.30;81.40;;;;;;5117641;28;19908;-69
2023/04/11 02:35:16;;;;;;;;;;;14.30;81.50;;;;;;5117656;28;20085;-71
2023/04/11 02:37:42;;;;;;;;;;;14.30;81.50;;;;;;5119398;27;20343;-71
2023/04/11 02:40:08;;;;;;;;;;;14.30;81.50;;;;;;5118265;27;19908;-71
2023/04/11 02:42:34;;;;;;;;;;;14.30;81.50;;;;;;5117244;28;19920;-73
2023/04/11 02:44:59;;;;;;;;;;;14.30;81.50;;;;;;5117359;28;19912;-73
2023/04/11 02:47:25;;;;;;;;;;;14.40;81.60;;;;;;5117441;28;19995;-72
2023/04/11 02:49:50;;;;;;;;;;;14.30;81.50;;;;;;5117590;28;19912;-70
2023/04/11 02:52:16;;;;;;;;;;;14.30;81.60;;;;;;5117315;28;19912;-71
2023/04/11 02:54:42;;;;;;;;;;;14.30;81.60;;;;;;5117282;28;19908;-70
2023/04/11 02:57:07;;;;;;;;;;;14.30;81.60;;;;;;5117209;28;19908;-71
2023/04/11 02:59:33;;;;;;;;;;;14.30;81.60;;;;;;5118985;28;19907;-70
2023/04/11 03:01:59;;;;;;;;;;;14.30;81.60;;;;;;5118639;28;19915;-71
2023/04/11 03:04:24;;;;;;;;;;;14.30;81.60;;;;;;5117768;28;19912;-70
2023/04/11 03:06:50;;;;;;;;;;;14.30;81.60;;;;;;5118028;28;19911;-70
2023/04/11 03:09:15;;;;;;;;;;;14.30;81.60;;;;;;5115746;28;20262;-70
2023/04/11 03:11:41;;;;;;;;;;;14.30;81.60;;;;;;5118082;27;19915;-70
2023/04/11 03:14:06;;;;;;;;;;;14.30;81.60;;;;;;5115952;28;19915;-70
2023/04/11 03:16:32;;;;;;;;;;;14.30;81.60;;;;;;5116858;28;19908;-70
2023/04/11 03:18:57;;;;;;;;;;;14.30;81.60;;;;;;5117702;28;19907;-70
2023/04/11 03:21:23;;;;;;;;;;;14.30;81.60;;;;;;5118617;28;19908;-69
2023/04/11 03:23:48;;;;;;;;;;;14.30;81.60;;;;;;5115296;28;20010;-69
2023/04/11 03:26:14;;;;;;;;;;;14.30;81.60;;;;;;5115298;28;19939;-69
2023/04/11 03:28:40;;;;;;;;;;;14.30;81.60;;;;;;5116559;28;19907;-71
2023/04/11 03:31:05;;;;;;;;;;;14.30;81.60;;;;;;5117398;28;19908;-71
2023/04/11 03:33:31;;;;;;;;;;;14.30;82.10;;;;;;5116450;28;19908;-70
2023/04/11 03:35:56;;;;;;;;;;;14.20;81.60;;;;;;5117003;28;19912;-70
2023/04/11 03:38:22;;;;;;;;;;;14.30;81.70;;;;;;5116799;28;19914;-71
2023/04/11 03:40:48;;;;;;;;;;;14.20;81.60;;;;;;5116909;28;19912;-69
2023/04/11 03:43:14;;;;;;;;;;;14.20;81.70;;;;;;5115846;28;19920;-69
2023/04/11 03:45:39;;;;;;;;;;;14.20;81.70;;;;;;5116932;28;20003;-68
2023/04/11 03:48:05;;;;;;;;;;;14.20;81.70;;;;;;5117425;28;19958;-70
2023/04/11 03:50:30;;;;;;;;;;;14.20;81.70;;;;;;5116199;28;20300;-68
2023/04/11 03:52:56;;;;;;;;;;;14.20;81.70;;;;;;5115806;28;19930;-69
2023/04/11 03:55:21;;;;;;;;;;;14.20;81.70;;;;;;5114731;28;20354;-69
2023/04/11 03:57:47;;;;;;;;;;;14.20;81.70;;;;;;5116175;28;19931;-68
2023/04/11 04:00:13;;;;;;;;;;;14.20;81.80;;;;;;5114439;28;20374;-68
2023/04/11 04:02:39;;;;;;;;;;;14.20;81.80;;;;;;5115523;28;20026;-70
2023/04/11 04:05:05;;;;;;;;;;;14.20;81.80;;;;;;5114017;28;20406;-69
2023/04/11 04:07:31;;;;;;;;;;;14.20;81.80;;;;;;5115742;28;20018;-69
2023/04/11 04:09:57;;;;;;;;;;;14.20;81.80;;;;;;5114472;28;19961;-69
2023/04/11 04:12:22;;;;;;;;;;;14.20;81.80;;;;;;5115637;28;19911;-69
2023/04/11 04:14:48;;;;;;;;;;;14.20;81.80;;;;;;5114345;28;19953;-69
2023/04/11 04:17:14;;;;;;;;;;;14.20;81.80;;;;;;5115218;28;19907;-69
2023/04/11 04:19:40;;;;;;;;;;;14.20;81.80;;;;;;5115216;28;19907;-69
2023/04/11 04:22:10;;;;;;;;;;;14.20;81.80;;;;;;5115438;28;19961;-69
2023/04/11 04:24:40;;;;;;;;;;;14.20;81.90;;;;;;5115041;28;19912;-69
2023/04/11 04:27:09;;;;;;;;;;;14.20;81.80;;;;;;5115521;28;19911;-69
2023/04/11 04:29:37;;;;;;;;;;;14.20;81.90;;;;;;5115336;28;19907;-69
2023/04/11 04:32:09;;;;;;;;;;;14.20;81.90;;;;;;5115268;28;19942;-70
2023/04/11 04:34:36;;;;;;;;;;;14.20;81.90;;;;;;5115237;28;20258;-70
2023/04/11 04:37:02;;;;;;;;;;;14.20;81.90;;;;;;5113816;28;19914;-70
2023/04/11 04:39:28;;;;;;;;;;;14.20;81.90;;;;;;5115082;28;19907;-69
2023/04/11 04:42:00;;;;;;;;;;;14.20;81.90;;;;;;5114925;28;19976;-70
2023/04/11 04:44:26;;;;;;;;;;;14.20;81.90;;;;;;5114847;28;20347;-70
2023/04/11 04:46:54;;;;;;;;;;;14.20;81.90;;;;;;5114935;28;19919;-70
2023/04/11 04:49:20;;;;;;;;;;;14.20;81.90;;;;;;5115112;28;19908;-70
2023/04/11 04:51:46;;;;;;;;;;;14.20;81.90;;;;;;5114956;28;19953;-70
2023/04/11 04:54:12;;;;;;;;;;;14.20;81.90;;;;;;5114907;28;19922;-70
2023/04/11 04:56:37;;;;;;;;;;;14.20;81.90;;;;;;5113498;28;19998;-70
2023/04/11 04:59:03;;;;;;;;;;;14.10;81.90;;;;;;5113621;28;20410;-70
2023/04/11 05:01:28;;;;;;;;;;;14.20;82.00;;;;;;5113603;28;19915;-70
2023/04/11 05:03:57;;;;;;;;;;;14.10;81.90;;;;;;5113420;28;19954;-70
2023/04/11 05:06:33;;;;;;;;;;;14.10;81.90;;;;;;5114462;28;19912;-69
2023/04/11 05:08:59;;;;;;;;;;;14.10;81.90;;;;;;5114684;28;19931;-69
2023/04/11 05:11:25;;;;;;;;;;;14.10;81.90;;;;;;5113419;28;19908;-69
2023/04/11 05:13:51;;;;;;;;;;;14.20;82.00;;;;;;5114568;28;19908;-69
2023/04/11 05:16:17;;;;;;;;;;;14.10;81.90;;;;;;5114172;28;19935;-69
2023/04/11 05:18:43;;;;;;;;;;;14.10;81.90;;;;;;5114612;28;20262;-69
2023/04/11 05:21:09;;;;;;;;;;;14.10;81.90;;;;;;5114488;28;19908;-69
2023/04/11 05:23:34;;;;;;;;;;;14.10;81.90;;;;;;5114195;28;19908;-69
2023/04/11 05:26:00;;;;;;;;;;;14.10;81.90;;;;;;5113120;28;19911;-70
2023/04/11 05:28:25;;;;;;;;;;;14.10;81.90;;;;;;5113249;28;20365;-70
2023/04/11 05:30:51;;;;;;;;;;;14.10;81.90;;;;;;5113188;28;19908;-69
2023/04/11 05:33:16;;;;;;;;;;;14.10;81.90;;;;;;5114785;28;19912;-68
2023/04/11 05:35:42;;;;;;;;;;;14.10;81.90;;;;;;5113267;28;19990;-69
2023/04/11 05:38:08;;;;;;;;;;;14.10;81.90;;;;;;5114569;28;20252;-69
2023/04/11 05:40:35;;;;;;;;;;;14.10;81.90;;;;;;5112715;28;19908;-69
2023/04/11 05:43:00;;;;;;;;;;;14.10;81.90;;;;;;5112478;28;19926;-69
2023/04/11 05:45:26;;;;;;;;;;;14.10;81.90;;;;;;5113678;28;20019;-69
2023/04/11 05:47:51;;;;;;;;;;;14.10;81.90;;;;;;5112824;28;19957;-70
2023/04/11 05:50:16;;;;;;;;;;;14.10;81.90;;;;;;5112849;28;20285;-69
2023/04/11 05:52:42;;;;;;;;;;;14.10;81.80;;;;;;5112867;28;19949;-70
2023/04/11 05:55:08;;;;;;;;;;;14.10;81.90;;;;;;5114163;28;19908;-70
2023/04/11 05:57:33;;;;;;;;;;;14.10;81.90;;;;;;5113878;28;20374;-69
2023/04/11 06:00:00;;;;;;;;;;;14.10;81.90;;;;;;5113853;28;19908;-70
2023/04/11 06:02:27;;;;;;;;;;;14.10;81.90;;;;;;5112837;28;20269;-70
2023/04/11 06:04:52;;;;;;;;;;;14.10;81.90;;;;;;5113938;28;19912;-70
2023/04/11 06:07:18;;;;;;;;;;;14.10;81.90;;;;;;5114028;28;20016;-70
2023/04/11 06:09:43;;;;;;;;;;;14.10;81.90;;;;;;5115251;28;19953;-70
2023/04/11 06:12:09;;;;;;;;;;;14.10;81.90;;;;;;5118123;28;19911;-70
2023/04/11 06:14:34;;;;;;;;;;;14.10;81.90;;;;;;5117806;28;19915;-70
2023/04/11 06:17:00;;;;;;;;;;;14.10;81.90;;;;;;5116358;28;19908;-70
2023/04/11 06:19:25;;;;;;;;;;;14.10;81.90;;;;;;5117757;28;19911;-70
2023/04/11 06:21:51;;;;;;;;;;;14.10;81.90;;;;;;5118028;28;20343;-70
2023/04/11 06:24:19;;;;;;;;;;;14.10;81.90;;;;;;5117247;28;19934;-69
2023/04/11 06:26:45;;;;;;;;;;;14.10;81.90;;;;;;5117376;28;19957;-70
2023/04/11 06:29:10;;;;;;;;;;;14.10;81.90;;;;;;5115946;28;19908;-70
2023/04/11 06:31:36;;;;;;;;;;;14.10;81.90;;;;;;5116222;28;19908;-70
2023/04/11 06:34:01;;;;;;;;;;;14.10;81.90;;;;;;5115834;28;20408;-70
2023/04/11 06:36:27;;;;;;;;;;;14.10;82.00;;;;;;5117305;28;19918;-70
2023/04/11 06:38:52;;;;;;;;;;;14.10;82.00;;;;;;5117443;28;19908;-70
2023/04/11 06:41:18;;;;;;;;;;;14.10;82.00;;;;;;5115733;28;19915;-70
2023/04/11 06:43:43;;;;;;;;;;;14.10;82.00;;;;;;5115252;28;19968;-70
2023/04/11 06:46:09;;;;;;;;;;;14.10;82.00;;;;;;5116962;28;19911;-70
2023/04/11 06:48:34;;;;;;;;;;;14.10;82.00;;;;;;5117143;28;19911;-70
2023/04/11 06:51:00;;;;;;;;;;;14.10;82.00;;;;;;5116844;28;20254;-70
2023/04/11 06:53:25;;;;;;;;;;;14.10;82.00;;;;;;5117108;28;19907;-70
2023/04/11 06:55:51;;;;;;;;;;;14.10;82.10;;;;;;5116760;28;20407;-70
2023/04/11 06:58:16;;;;;;;;;;;14.10;82.00;;;;;;5117378;28;19947;-69
2023/04/11 07:00:42;;;;;;;;;;;14.10;82.10;;;;;;5116849;28;19961;-70
2023/04/11 07:03:07;;;;;;;;;;;14.10;82.10;;;;;;5115355;28;19915;-70
2023/04/11 07:05:34;;;;;;;;;;;14.10;82.10;;;;;;5115437;28;19937;-70
2023/04/11 07:08:00;;;;;;;;;;;14.10;82.10;;;;;;5116577;28;19908;-70
2023/04/11 07:10:25;;;;;;;;;;;14.10;82.10;;;;;;5116935;28;19915;-70
2023/04/11 07:12:51;;;;;;;;;;;14.10;82.10;;;;;;5115479;28;19911;-69
2023/04/11 07:15:16;;;;;;;;;;;14.10;82.10;;;;;;5117046;28;20296;-70
2023/04/11 07:17:42;;;;;;;;;;;14.10;82.60;;;;;;5116624;28;19908;-69
2023/04/11 07:20:08;;;;;;;;;;;14.10;82.10;;;;;;5115334;28;19911;-70
2023/04/11 07:22:35;;;;;;;;;;;14.10;82.20;;;;;;5115631;28;20015;-70
2023/04/11 07:25:02;;;;;;;;;;;14.10;82.10;;;;;;5116447;28;19963;-70
2023/04/11 07:27:27;;;;;;;;;;;14.10;82.20;;;;;;5116463;28;20382;-70
2023/04/11 07:29:53;;;;;;;;;;;14.10;82.10;;;;;;5115284;28;19914;-69
2023/04/11 07:32:18;;;;;;;;;;;14.00;82.10;;;;;;5115932;28;19908;-70
2023/04/11 07:34:44;;;;;;;;;;;14.00;82.10;;;;;;5116234;28;19922;-70
2023/04/11 07:37:09;;;;;;;;;;;14.10;82.20;;;;;;5114749;28;19912;-70
2023/04/11 07:39:35;;;;;;;;;;;14.00;82.60;;;;;;5116135;27;20010;-70
2023/04/11 07:42:01;;;;;;;;;;;14.00;82.10;;;;;;5114762;28;19970;-70
2023/04/11 07:44:26;;;;;;;;;;;14.00;82.10;;;;;;5115695;27;19926;-70
2023/04/11 07:46:52;;;;;;;;;;;14.00;82.10;;;;;;5116017;28;19912;-70
2023/04/11 07:49:17;;;;;;;;;;;14.00;82.20;;;;;;5114728;28;19914;-68
2023/04/11 07:51:43;;;;;;;;;;;14.00;82.20;;;;;;5116316;28;19908;-70
2023/04/11 07:54:08;;;;;;;;;;;14.10;82.20;;;;;;5115562;28;19976;-70
2023/04/11 07:56:34;;;;;;;;;;;14.00;82.20;;;;;;5114355;28;19915;-70
2023/04/11 07:59:00;;;;;;;;;;;14.00;82.20;;;;;;5114466;28;19960;-70
2023/04/11 08:01:25;;;;;;;;;;;14.00;82.20;;;;;;5115479;28;19957;-69
2023/04/11 08:03:54;;;;;;;;;;;14.00;82.20;;;;;;5115647;28;19939;-69
2023/04/11 08:06:20;;;;;;;;;;;14.00;82.20;;;;;;5114363;28;19908;-68
2023/04/11 08:08:46;;;;;;;;;;;14.00;82.20;;;;;;5115267;28;20378;-70
2023/04/11 08:11:11;;;;;;;;;;;14.00;82.20;;;;;;5115496;28;20037;-70
2023/04/11 08:13:37;;;;;;;;;;;14.00;82.20;;;;;;5115484;28;19918;-71
2023/04/11 08:16:05;;;;;;;;;;;14.10;82.30;;;;;;5115740;28;19911;-70
2023/04/11 08:18:31;;;;;;;;;;;14.00;82.30;;;;;;5115469;28;20007;-71
2023/04/11 08:20:57;;;;;;;;;;;14.00;82.30;;;;;;5115224;28;19911;-72
2023/04/11 08:23:22;;;;;;;;;;;14.00;82.30;;;;;;5115241;28;19914;-72
2023/04/11 08:25:48;;;;;;;;;;;14.00;82.30;;;;;;5115141;28;19916;-71
2023/04/11 08:28:14;;;;;;;;;;;14.00;82.30;;;;;;5114932;28;19914;-71
2023/04/11 08:30:39;;;;;;;;;;;14.00;82.30;;;;;;5115265;27;19958;-71
2023/04/11 08:33:06;;;;;;;;;;;14.10;82.40;;;;;;5113842;28;20359;-71
2023/04/11 08:35:31;;;;;;;;;;;14.00;82.40;;;;;;5115081;28;19966;-70
2023/04/11 08:37:56;;;;;;;;;;;14.00;82.40;;;;;;5114986;27;20294;-71
2023/04/11 08:40:22;;;;;;;;;;;14.10;82.40;;;;;;5114945;28;19908;-71
2023/04/11 08:42:48;;;;;;;;;;;14.00;82.30;;;;;;5115141;28;19926;-72
2023/04/11 08:45:13;;;;;;;;;;;14.00;82.30;;;;;;5114385;28;20014;-71
2023/04/11 08:47:39;;;;;;;;;;;14.00;82.30;;;;;;5114812;28;19907;-70
2023/04/11 08:50:05;;;;;;;;;;;14.00;82.40;;;;;;5114856;28;20011;-71
2023/04/11 08:52:31;;;;;;;;;;;14.00;82.40;;;;;;5114968;28;19951;-71
2023/04/11 08:54:57;;;;;;;;;;;14.10;82.40;;;;;;5114773;28;19938;-71
2023/04/11 08:57:26;;;;;;;;;;;14.00;82.40;;;;;;5113432;28;19909;-71
2023/04/11 08:59:53;;;;;;;;;;;14.00;82.40;;;;;;5113586;28;19907;-71
2023/04/11 09:02:18;;;;;;;;;;;14.00;82.40;;;;;;5114821;28;19914;-71
2023/04/11 09:04:46;;;;;;;;;;;14.00;82.40;;;;;;5114602;28;19915;-71
2023/04/11 09:07:11;;;;;;;;;;;14.00;82.40;;;;;;5114282;28;20319;-71
2023/04/11 09:09:38;;;;;;;;;;;14.00;82.40;;;;;;5113382;28;19958;-71
2023/04/11 09:12:04;;;;;;;;;;;14.00;82.40;;;;;;5114929;28;19907;-70
2023/04/11 09:14:30;;;;;;;;;;;14.00;82.50;;;;;;5114297;28;20314;-70
2023/04/11 09:16:56;;;;;;;;;;;14.00;82.40;;;;;;5114270;27;19908;-70
2023/04/11 09:19:23;;;;;;;;;;;14.00;82.50;;;;;;5113075;28;20308;-70
2023/04/11 09:21:49;;;;;;;;;;;14.00;82.40;;;;;;5114229;28;20251;-71
2023/04/11 09:24:15;;;;;;;;;;;14.00;82.50;;;;;;5114312;28;19916;-71
2023/04/11 09:26:40;;;;;;;;;;;14.00;82.50;;;;;;5113090;28;20286;-71
2023/04/11 09:29:06;;;;;;;;;;;14.10;82.50;;;;;;5114020;28;19912;-70
2023/04/11 09:31:38;;;;;;;;;;;14.10;82.40;;;;;;5114337;28;20392;-70
2023/04/11 09:34:03;;;;;;;;;;;14.10;82.40;;;;;;5114170;28;19908;-71
2023/04/11 09:36:29;;;;;;;;;;;14.10;82.40;;;;;;5113920;28;19969;-70
2023/04/11 09:38:55;;;;;;;;;;;14.20;82.40;;;;;;5114139;28;19912;-71
2023/04/11 09:41:30;;;;;;;;;;;14.20;82.30;;;;;;5114214;28;19908;-70
2023/04/11 09:43:56;;;;;;;;;;;14.20;82.20;;;;;;5113809;28;19936;-70
2023/04/11 09:46:22;;;;;;;;;;;14.30;82.10;;;;;;5118001;28;19908;-70
2023/04/11 09:48:48;;;;;;;;;;;14.30;81.90;;;;;;5118289;28;19994;-70
2023/04/11 09:51:14;;;;;;;;;;;14.40;81.90;;;;;;5118015;27;19908;-71
2023/04/11 09:53:39;;;;;;;;;;;14.40;81.90;;;;;;5117986;28;19915;-71
2023/04/11 09:56:06;;;;;;;;;;;14.40;81.70;;;;;;5116885;28;19907;-70
2023/04/11 09:58:32;;;;;;;;;;;14.40;81.70;;;;;;5118307;28;19914;-70
2023/04/11 10:01:01;;;;;;;;;;;14.40;81.70;;;;;;5118013;28;19915;-70
2023/04/11 10:03:29;;;;;;;;;;;14.40;81.70;;;;;;5117871;28;20367;-70
2023/04/11 10:05:56;;;;;;;;;;;14.50;81.70;;;;;;5116376;28;20252;-70
2023/04/11 10:08:25;;;;;;;;;;;14.50;81.70;;;;;;5117618;27;19918;-70
2023/04/11 10:10:51;;;;;;;;;;;14.50;81.70;;;;;;5117670;28;19961;-71
2023/04/11 10:13:35;;;;;;;;;;;14.50;81.70;;;;;;5117773;28;19912;-70
2023/04/11 10:16:07;;;;;;;;;;;14.50;81.70;;;;;;5116396;28;19924;-70
2023/04/11 10:18:33;;;;;;;;;;;14.50;81.60;;;;;;5117308;27;20274;-70
2023/04/11 10:21:00;;;;;;;;;;;14.50;81.60;;;;;;5117525;28;19908;-71
2023/04/11 10:23:25;;;;;;;;;;;14.50;81.60;;;;;;5117452;28;20286;-71
2023/04/11 10:25:51;;;;;;;;;;;14.50;81.50;;;;;;5116116;28;19923;-70
2023/04/11 10:28:28;;;;;;;;;;;14.50;81.50;;;;;;5117415;28;19912;-72
2023/04/11 10:30:58;;;;;;;;;;;14.50;81.50;;;;;;5117625;28;19919;-70
2023/04/11 10:33:26;;;;;;;;;;;14.50;81.50;;;;;;5117564;28;19954;-71
2023/04/11 10:36:00;;;;;;;;;;;14.50;81.50;;;;;;5117672;28;19914;-69
2023/04/11 10:38:47;;;;;;;;;;;14.50;81.50;;;;;;5117481;28;19908;-70
2023/04/11 10:41:15;;;;;;;;;;;14.50;81.50;;;;;;5117530;27;19957;-70
2023/04/11 10:43:41;;;;;;;;;;;14.50;81.40;;;;;;5116928;28;19919;-70
2023/04/11 10:46:15;;;;;;;;;;;14.50;81.40;;;;;;5117051;28;19916;-71
2023/04/11 10:49:00;;;;;;;;;;;14.50;81.40;;;;;;5117167;28;20362;-70
2023/04/11 10:51:26;;;;;;;;;;;14.50;81.30;;;;;;5116662;28;19915;-70
2023/04/11 10:53:52;;;;;;;;;;;14.60;81.30;;;;;;5116770;27;19907;-69
2023/04/11 10:56:36;;;;;;;;;;;14.60;81.30;;;;;;5114657;28;19908;-70
2023/04/11 10:59:02;;;;;;;;;;;14.60;81.30;;;;;;5116802;28;20360;-70
2023/04/11 11:01:28;;;;;;;;;;;14.60;81.20;;;;;;5116495;28;19915;-70
2023/04/11 11:03:55;;;;;;;;;;;14.70;81.20;;;;;;5116775;28;19912;-69
2023/04/11 11:06:21;;;;;;;;;;;14.90;81.00;;;;;;5116809;28;20384;-70
2023/04/11 11:08:46;;;;;;;;;;;15.00;80.70;;;;;;5116396;28;19912;-70
2023/04/11 11:11:12;;;;;;;;;;;15.00;80.40;;;;;;5116997;28;19908;-70
2023/04/11 11:13:41;;;;;;;;;;;15.10;80.30;;;;;;5115370;28;19907;-70
2023/04/11 11:16:07;;;;;;;;;;;15.10;80.20;;;;;;5116091;28;19911;-70
2023/04/11 11:18:33;;;;;;;;;;;15.10;80.10;;;;;;5116595;28;20224;-70
2023/04/11 11:20:58;;;;;;;;;;;15.20;80.10;;;;;;5116621;28;19915;-70
2023/04/11 11:23:24;;;;;;;;;;;15.20;80.00;;;;;;5115236;28;19953;-70
2023/04/11 11:25:53;;;;;;;;;;;15.20;80.10;;;;;;5116409;28;19912;-70
2023/04/11 11:28:19;;;;;;;;;;;15.20;80.10;;;;;;5116178;27;19911;-70
2023/04/11 11:30:51;;;;;;;;;;;15.10;80.10;;;;;;5114989;28;19972;-70
2023/04/11 11:33:18;;;;;;;;;;;15.20;80.10;;;;;;5114832;28;19912;-70
2023/04/11 11:35:54;;;;;;;;;;;15.10;80.10;;;;;;5116065;28;19914;-70
2023/04/11 11:38:21;;;;;;;;;;;15.10;80.70;;;;;;5114782;28;20254;-70
2023/04/11 11:40:47;;;;;;;;;;;15.10;80.20;;;;;;5116016;28;19908;-70
2023/04/11 11:43:13;;;;;;;;;;;15.00;80.30;;;;;;5116032;28;20468;-71
2023/04/11 11:45:38;;;;;;;;;;;15.10;80.40;;;;;;5114739;28;19998;-70
2023/04/11 11:48:04;;;;;;;;;;;15.10;80.40;;;;;;5114544;28;19956;-71
2023/04/11 11:50:30;;;;;;;;;;;15.00;80.40;;;;;;5115523;28;19908;-70
2023/04/11 11:53:11;;;;;;;;;;;15.00;80.40;;;;;;5116176;27;19966;-70
2023/04/11 11:55:37;;;;;;;;;;;15.00;80.50;;;;;;5115512;28;19964;-71
2023/04/11 11:58:02;;;;;;;;;;;15.00;80.50;;;;;;5115476;28;20333;-71
2023/04/11 12:00:29;;;;;;;;;;;15.00;80.50;;;;;;5115783;28;19915;-71
2023/04/11 12:02:55;;;;;;;;;;;15.00;80.60;;;;;;5115974;28;20003;-71
2023/04/11 12:05:23;;;;;;;;;;;15.00;80.50;;;;;;5114256;28;20347;-71
2023/04/11 12:07:52;;;;;;;;;;;14.90;80.50;;;;;;5113494;28;20011;-71
2023/04/11 12:10:17;;;;;;;;;;;15.00;80.60;;;;;;5114233;28;19916;-71
2023/04/11 12:12:47;;;;;;;;;;;14.90;80.60;;;;;;5115234;28;19949;-71
2023/04/11 12:15:13;;;;;;;;;;;14.90;80.60;;;;;;5115423;28;19908;-71
2023/04/11 12:17:39;;;;;;;;;;;14.90;80.60;;;;;;5115177;28;19916;-71
2023/04/11 12:20:06;;;;;;;;;;;14.90;80.60;;;;;;5113935;28;19914;-71
2023/04/11 12:22:32;;;;;;;;;;;14.90;80.70;;;;;;5115455;28;19908;-71
2023/04/11 12:25:08;;;;;;;;;;;15.00;80.70;;;;;;5115427;28;19956;-71
2023/04/11 12:27:33;;;;;;;;;;;15.00;80.70;;;;;;5114935;28;19919;-71
2023/04/11 12:29:59;;;;;;;;;;;15.00;80.70;;;;;;5113876;28;19908;-71
2023/04/11 12:32:26;;;;;;;;;;;15.00;80.70;;;;;;5114528;28;20255;-70
2023/04/11 12:34:52;;;;;;;;;;;15.00;80.60;;;;;;5115451;28;19911;-71
2023/04/11 12:37:18;;;;;;;;;;;15.00;80.60;;;;;;5114887;28;19908;-70
2023/04/11 12:39:44;;;;;;;;;;;15.00;80.50;;;;;;5115208;28;20361;-71
2023/04/11 12:42:09;;;;;;;;;;;15.00;80.50;;;;;;5113358;28;19945;-70
2023/04/11 12:44:37;;;;;;;;;;;15.10;80.50;;;;;;5113915;28;20130;-71
2023/04/11 12:47:02;;;;;;;;;;;15.10;80.50;;;;;;5114488;28;19965;-71
2023/04/11 12:49:28;;;;;;;;;;;15.10;80.40;;;;;;5114467;28;19908;-71
2023/04/11 12:51:54;;;;;;;;;;;15.00;80.50;;;;;;5114550;28;20374;-71
2023/04/11 12:54:19;;;;;;;;;;;15.10;80.50;;;;;;5114413;28;19930;-71
2023/04/11 12:56:45;;;;;;;;;;;15.10;80.50;;;;;;5113302;28;19946;-71
2023/04/11 12:59:10;;;;;;;;;;;15.10;80.40;;;;;;5113501;28;19908;-71
2023/04/11 13:01:36;;;;;;;;;;;15.10;80.50;;;;;;5114512;28;19907;-71
2023/04/11 13:04:02;;;;;;;;;;;15.10;80.50;;;;;;5113451;28;19955;-71
2023/04/11 13:06:28;;;;;;;;;;;15.00;80.50;;;;;;5114366;28;19912;-72
2023/04/11 13:08:55;;;;;;;;;;;15.00;80.50;;;;;;5114587;28;20307;-71
2023/04/11 13:11:21;;;;;;;;;;;15.10;80.50;;;;;;5114869;28;19908;-71
2023/04/11 13:13:48;;;;;;;;;;;15.00;80.50;;;;;;5114584;28;19960;-72
2023/04/11 13:16:14;;;;;;;;;;;15.00;80.50;;;;;;5113187;28;19916;-71
2023/04/11 13:18:40;;;;;;;;;;;15.00;80.60;;;;;;5113483;28;20278;-71
2023/04/11 13:21:05;;;;;;;;;;;15.00;80.60;;;;;;5112930;28;19907;-71
2023/04/11 13:23:31;;;;;;;;;;;15.00;80.50;;;;;;5113004;28;19915;-71
2023/04/11 13:25:56;;;;;;;;;;;15.10;81.10;;;;;;5114473;28;19924;-71
2023/04/11 13:28:22;;;;;;;;;;;15.00;81.00;;;;;;5114470;28;19914;-72
2023/04/11 13:30:47;;;;;;;;;;;15.00;80.50;;;;;;5114290;28;20419;-71
2023/04/11 13:33:13;;;;;;;;;;;15.10;80.50;;;;;;5113907;28;20392;-71
2023/04/11 13:35:38;;;;;;;;;;;15.00;80.50;;;;;;5114199;28;19908;-71
2023/04/11 13:38:04;;;;;;;;;;;15.00;80.50;;;;;;5112750;28;19955;-71
2023/04/11 13:40:29;;;;;;;;;;;15.00;80.50;;;;;;5114213;28;19995;-71
2023/04/11 13:42:55;;;;;;;;;;;15.00;80.50;;;;;;5112692;28;19919;-71
2023/04/11 13:45:20;;;;;;;;;;;15.10;80.40;;;;;;5112650;28;19927;-71
2023/04/11 13:47:46;;;;;;;;;;;15.10;80.40;;;;;;5113904;28;20085;-71
2023/04/11 13:50:11;;;;;;;;;;;15.20;80.30;;;;;;5112735;28;19994;-71
2023/04/11 13:52:38;;;;;;;;;;;15.20;80.30;;;;;;5114076;28;20043;-71
2023/04/11 13:55:04;;;;;;;;;;;15.20;80.20;;;;;;5114141;28;19914;-71
2023/04/11 13:57:30;;;;;;;;;;;15.20;80.20;;;;;;5113988;28;19908;-71
2023/04/11 13:59:55;;;;;;;;;;;15.20;80.20;;;;;;5113869;28;20255;-71
2023/04/11 14:02:21;;;;;;;;;;;15.20;80.20;;;;;;5114242;28;20308;-71
2023/04/11 14:04:46;;;;;;;;;;;15.20;80.20;;;;;;5113981;28;19942;-71
2023/04/11 14:07:12;;;;;;;;;;;15.20;80.10;;;;;;5112718;28;19955;-71
2023/04/11 14:09:37;;;;;;;;;;;15.20;80.10;;;;;;5114052;28;19907;-71
2023/04/11 14:12:03;;;;;;;;;;;15.20;80.20;;;;;;5113819;28;19907;-71